Time;durP1;ratioP1;P1;durP2;ratioP2;P2;SDS_P1;SDS_P2;PMS_P1;PMS_P2;Temp;Humidity;BMP_temperature;BMP_pressure;BME280_temperature;BME280_humidity;BME280_pressure;Samples;Min_cycle;Max_cycle;Signal;HPM_P1;HPM_P2
2023/06/02 00:00:38;;;;;;;16.63;9.20;;;19.00;99.30;;;;;;7404317;19;19929;-74
2023/06/02 00:03:05;;;;;;;14.73;8.18;;;19.10;99.00;;;;;;7405152;19;20387;-73
2023/06/02 00:05:31;;;;;;;12.60;8.07;;;19.10;99.00;;;;;;7406136;19;19978;-73
2023/06/02 00:07:58;;;;;;;13.98;8.10;;;19.00;99.10;;;;;;7404794;19;19923;-73
2023/06/02 00:10:24;;;;;;;13.93;8.73;;;19.10;99.10;;;;;;7403149;19;19962;-73
2023/06/02 00:12:50;;;;;;;14.05;8.10;;;19.20;99.00;;;;;;7405433;19;19919;-73
2023/06/02 00:15:17;;;;;;;13.55;8.23;;;19.20;98.70;;;;;;7400958;19;19934;-73
2023/06/02 00:17:43;;;;;;;14.80;8.23;;;19.10;98.70;;;;;;7372238;19;19918;-74
2023/06/02 00:20:10;;;;;;;15.18;8.35;;;19.10;98.80;;;;;;7400972;19;19926;-73
2023/06/02 00:22:38;;;;;;;14.93;9.60;;;19.20;99.10;;;;;;7402621;19;19978;-72
2023/06/02 00:25:04;;;;;;;17.58;9.90;;;19.30;98.90;;;;;;7401728;19;19914;-73
2023/06/02 00:27:30;;;;;;;;;;;19.30;99.00;;;;;;7405443;19;20445;-72
2023/06/02 00:29:56;;;;;;;21.08;12.07;;;19.30;99.30;;;;;;7403398;19;19922;-73
2023/06/02 00:32:22;;;;;;;16.63;11.18;;;19.20;99.20;;;;;;7396934;19;19919;-73
2023/06/02 00:34:48;;;;;;;20.00;12.50;;;19.20;99.10;;;;;;7400537;19;20735;-73
2023/06/02 00:37:14;;;;;;;21.10;12.80;;;19.20;99.40;;;;;;7399039;19;19911;-72
2023/06/02 00:39:40;;;;;;;21.15;12.52;;;19.20;99.30;;;;;;7400623;19;20522;-73
2023/06/02 00:42:06;;;;;;;21.40;12.45;;;19.10;99.40;;;;;;7400304;19;20364;-73
2023/06/02 00:44:32;;;;;;;23.05;13.23;;;19.10;99.80;;;;;;7396468;19;19978;-73
2023/06/02 00:46:58;;;;;;;18.60;12.48;;;19.10;99.90;;;;;;7401272;19;20292;-72
2023/06/02 00:49:24;;;;;;;21.27;13.05;;;19.20;99.90;;;;;;7401444;19;19914;-72
2023/06/02 00:51:50;;;;;;;21.30;12.90;;;19.20;99.90;;;;;;7400348;19;20379;-75
2023/06/02 00:54:16;;;;;;;20.70;13.10;;;19.10;99.90;;;;;;7402412;19;19918;-73
2023/06/02 00:56:43;;;;;;;20.48;13.25;;;19.10;99.90;;;;;;7400408;19;19933;-73
2023/06/02 00:59:10;;;;;;;21.20;13.60;;;19.10;99.90;;;;;;7400028;19;19914;-73
2023/06/02 01:01:38;;;;;;;19.73;13.70;;;19.10;99.90;;;;;;7398146;19;19925;-74
2023/06/02 01:04:07;;;;;;;19.63;12.80;;;19.10;99.90;;;;;;7401854;19;19933;-72
2023/06/02 01:06:36;;;;;;;20.35;12.25;;;19.00;99.90;;;;;;7402462;19;19907;-72
2023/06/02 01:09:08;;;;;;;19.83;12.07;;;19.00;99.90;;;;;;7403275;19;20265;-73
2023/06/02 01:11:33;;;;;;;18.92;11.85;;;19.00;99.90;;;;;;7401012;19;19922;-73
2023/06/02 01:14:00;;;;;;;21.40;11.85;;;18.90;99.90;;;;;;7398119;19;19942;-72
2023/06/02 01:16:29;;;;;;;18.38;11.82;;;18.90;99.90;;;;;;7398424;19;19929;-73
2023/06/02 01:18:59;;;;;;;20.92;11.23;;;18.90;99.90;;;;;;7401360;19;20331;-72
2023/06/02 01:21:28;;;;;;;18.33;11.63;;;18.90;99.90;;;;;;7397847;19;19914;-73
2023/06/02 01:23:57;;;;;;;15.05;10.50;;;18.80;99.90;;;;;;7376899;19;19918;-73
2023/06/02 01:26:23;;;;;;;16.85;11.73;;;18.80;99.90;;;;;;7396774;19;19934;-72
2023/06/02 01:28:51;;;;;;;18.63;11.18;;;18.80;99.90;;;;;;7402165;19;19918;-72
2023/06/02 01:31:27;;;;;;;16.67;10.45;;;18.80;99.90;;;;;;7401618;19;19960;-73
2023/06/02 01:33:53;;;;;;;17.02;11.35;;;18.80;99.90;;;;;;7401651;19;19918;-72
2023/06/02 01:36:22;;;;;;;18.13;10.73;;;18.80;99.90;;;;;;7399689;19;20565;-72
2023/06/02 01:38:49;;;;;;;19.00;10.80;;;18.80;99.90;;;;;;7399474;19;19915;-73
2023/06/02 01:41:18;;;;;;;17.83;11.45;;;18.80;99.90;;;;;;7397906;19;19935;-72
2023/06/02 01:43:46;;;;;;;17.15;11.55;;;18.80;99.90;;;;;;7400887;19;19922;-72
2023/06/02 01:46:12;;;;;;;20.73;11.38;;;18.70;99.90;;;;;;7378928;19;19994;-72
2023/06/02 01:48:40;;;;;;;15.15;10.18;;;18.70;99.90;;;;;;7404164;19;20012;-73
2023/06/02 01:51:06;;;;;;;19.90;11.77;;;18.70;99.90;;;;;;7402714;19;19918;-73
2023/06/02 01:53:31;;;;;;;17.40;10.93;;;18.70;99.90;;;;;;7403591;19;19926;-73
2023/06/02 01:55:58;;;;;;;19.50;11.65;;;18.70;99.90;;;;;;7409171;19;19918;-72
2023/06/02 01:58:24;;;;;;;20.40;12.15;;;18.80;99.90;;;;;;7403985;19;19921;-73
2023/06/02 02:00:50;;;;;;;18.52;12.93;;;18.80;99.90;;;;;;7404971;19;19919;-73
2023/06/02 02:03:17;;;;;;;20.08;12.43;;;18.80;99.90;;;;;;7400456;19;19919;-72
2023/06/02 02:05:43;;;;;;;19.17;13.02;;;18.80;99.90;;;;;;7402555;19;19947;-73
2023/06/02 02:08:12;;;;;;;19.42;12.23;;;18.70;99.90;;;;;;7404441;19;20223;-71
2023/06/02 02:10:38;;;;;;;22.60;12.20;;;18.70;99.90;;;;;;7404749;19;20347;-72
2023/06/02 02:13:03;;;;;;;19.35;11.80;;;18.70;99.90;;;;;;7400857;19;19989;-72
2023/06/02 02:15:30;;;;;;;23.20;12.57;;;18.70;99.90;;;;;;7403235;19;19926;-73
2023/06/02 02:17:57;;;;;;;19.73;12.25;;;18.70;99.90;;;;;;7405646;19;19921;-74
2023/06/02 02:20:23;;;;;;;20.35;13.43;;;18.70;99.90;;;;;;7403468;19;19964;-72
2023/06/02 02:22:49;;;;;;;20.00;13.00;;;18.70;99.90;;;;;;7404514;19;19918;-73
2023/06/02 02:25:15;;;;;;;18.25;13.18;;;18.60;99.90;;;;;;7401382;19;19922;-73
2023/06/02 02:27:44;;;;;;;20.50;13.10;;;18.60;99.90;;;;;;7404837;19;19922;-73
2023/06/02 02:30:10;;;;;;;21.83;14.20;;;18.60;99.90;;;;;;7401095;19;20278;-72
2023/06/02 02:32:39;;;;;;;20.80;14.23;;;18.60;99.90;;;;;;7369678;19;19929;-71
2023/06/02 02:35:05;;;;;;;23.13;14.88;;;18.60;99.90;;;;;;7401509;19;19930;-72
2023/06/02 02:37:31;;;;;;;20.80;13.90;;;18.60;99.90;;;;;;7403738;19;19918;-71
2023/06/02 02:39:57;;;;;;;23.38;13.68;;;18.60;99.90;;;;;;7351318;19;20006;-71
2023/06/02 02:42:23;;;;;;;23.80;15.45;;;18.60;99.90;;;;;;7401103;19;19938;-72
2023/06/02 02:44:49;;;;;;;24.52;14.73;;;18.60;99.90;;;;;;7402925;19;19966;-72
2023/06/02 02:47:15;;;;;;;22.80;14.02;;;18.60;99.90;;;;;;7381134;19;20351;-72
2023/06/02 02:49:40;;;;;;;22.30;13.93;;;18.60;99.90;;;;;;7403382;19;20323;-72
2023/06/02 02:52:07;;;;;;;20.45;13.50;;;18.50;99.90;;;;;;7402924;19;20409;-71
2023/06/02 02:54:32;;;;;;;21.50;13.02;;;18.50;99.90;;;;;;7404591;19;20240;-72
2023/06/02 02:56:58;;;;;;;23.30;16.17;;;18.50;99.90;;;;;;7400235;19;19937;-73
2023/06/02 02:59:25;;;;;;;22.15;14.25;;;18.40;99.90;;;;;;7245061;19;3054162;-72
2023/06/02 03:01:51;;;;;;;24.20;14.48;;;18.40;99.90;;;;;;7403873;19;19929;-71
2023/06/02 03:04:24;;;;;;;21.77;14.02;;;18.40;99.90;;;;;;7400850;19;20311;-72
2023/06/02 03:06:52;;;;;;;23.85;14.65;;;18.40;99.90;;;;;;7382702;19;19918;-72
2023/06/02 03:09:19;;;;;;;20.33;14.30;;;18.40;99.90;;;;;;7405843;19;19970;-72
2023/06/02 03:11:45;;;;;;;22.67;13.68;;;18.30;99.90;;;;;;7406303;19;19911;-71
2023/06/02 03:14:12;;;;;;;22.15;15.32;;;18.40;99.90;;;;;;7404238;19;19919;-72
2023/06/02 03:16:41;;;;;;;24.60;15.50;;;18.40;99.90;;;;;;7405185;19;19907;-72
2023/06/02 03:19:17;;;;;;;23.45;15.80;;;18.40;99.90;;;;;;7402486;19;20441;-72
2023/06/02 03:21:44;;;;;;;24.10;16.15;;;18.40;99.90;;;;;;7401384;19;19929;-72
2023/06/02 03:24:11;;;;;;;25.20;16.85;;;18.40;99.90;;;;;;7398656;19;20378;-71
2023/06/02 03:26:40;;;;;;;30.08;17.50;;;18.40;99.90;;;;;;7405678;19;19919;-72
2023/06/02 03:29:07;;;;;;;28.80;17.38;;;18.30;99.90;;;;;;7403932;19;19967;-72
2023/06/02 03:31:33;;;;;;;27.95;17.02;;;18.30;99.90;;;;;;7404520;19;19918;-72
2023/06/02 03:33:58;;;;;;;29.50;19.60;;;18.30;99.90;;;;;;7406456;19;19967;-72
2023/06/02 03:36:26;;;;;;;29.58;17.67;;;18.30;99.90;;;;;;7400861;19;19918;-71
2023/06/02 03:38:54;;;;;;;30.08;19.17;;;18.20;99.90;;;;;;7402903;19;19907;-72
2023/06/02 03:41:21;;;;;;;32.97;19.05;;;18.10;99.90;;;;;;7401709;19;20339;-71
2023/06/02 03:43:47;;;;;;;25.88;17.45;;;18.10;99.90;;;;;;7404928;19;19922;-72
2023/06/02 03:46:13;;;;;;;31.58;18.85;;;18.10;99.90;;;;;;7399898;19;19949;-71
2023/06/02 03:48:39;;;;;;;28.73;17.83;;;18.10;99.90;;;;;;7401283;19;19971;-72
2023/06/02 03:51:06;;;;;;;29.60;18.77;;;18.10;99.90;;;;;;7402745;19;19919;-71
2023/06/02 03:53:32;;;;;;;32.15;19.00;;;18.00;99.90;;;;;;7400710;19;19926;-72
2023/06/02 03:55:58;;;;;;;30.65;18.42;;;18.00;99.90;;;;;;7379855;19;19930;-71
2023/06/02 03:58:25;;;;;;;26.75;17.90;;;17.90;99.90;;;;;;7400693;19;19994;-72
2023/06/02 04:00:51;;;;;;;24.42;17.05;;;17.90;99.90;;;;;;7403164;19;20635;-73
2023/06/02 04:03:17;;;;;;;29.73;19.40;;;17.90;99.90;;;;;;7401716;19;19923;-72
2023/06/02 04:05:43;;;;;;;29.80;17.30;;;17.90;99.90;;;;;;7401077;19;20236;-71
2023/06/02 04:08:10;;;;;;;27.98;17.20;;;17.90;99.90;;;;;;7401616;19;19943;-71
2023/06/02 04:10:36;;;;;;;26.75;16.27;;;17.80;99.90;;;;;;7403241;19;19914;-71
2023/06/02 04:13:02;;;;;;;26.10;16.98;;;17.80;99.90;;;;;;7403414;19;19919;-72
2023/06/02 04:15:29;;;;;;;27.40;16.70;;;17.70;99.90;;;;;;7403937;19;19953;-71
2023/06/02 04:17:55;;;;;;;27.13;17.48;;;17.70;99.90;;;;;;7400046;19;19910;-71
2023/06/02 04:20:20;;;;;;;24.65;15.48;;;17.80;99.90;;;;;;7398929;19;19970;-72
2023/06/02 04:22:46;;;;;;;25.35;15.48;;;17.80;99.90;;;;;;7401180;19;20306;-72
2023/06/02 04:25:12;;;;;;;24.20;15.98;;;17.70;99.90;;;;;;7366350;19;19946;-72
2023/06/02 04:27:38;;;;;;;26.30;17.13;;;17.80;99.90;;;;;;7400008;19;20351;-71
2023/06/02 04:30:04;;;;;;;31.63;16.73;;;17.80;99.90;;;;;;7400445;19;19929;-72
2023/06/02 04:32:30;;;;;;;26.42;16.08;;;17.80;99.90;;;;;;7398598;19;19914;-73
2023/06/02 04:34:56;;;;;;;28.13;16.27;;;17.80;99.90;;;;;;7398895;19;19921;-73
2023/06/02 04:37:22;;;;;;;25.88;16.15;;;17.80;99.90;;;;;;7394724;19;20246;-72
2023/06/02 04:39:51;;;;;;;25.33;15.93;;;17.90;99.90;;;;;;7400397;19;19923;-76
2023/06/02 04:42:17;;;;;;;23.48;16.13;;;17.90;99.90;;;;;;7402812;19;19922;-72
2023/06/02 04:44:44;;;;;;;28.45;16.77;;;18.00;99.90;;;;;;7381159;19;19910;-72
2023/06/02 04:47:12;;;;;;;26.55;16.35;;;18.00;99.90;;;;;;7378052;19;19918;-72
2023/06/02 04:49:38;;;;;;;28.23;16.02;;;18.10;99.90;;;;;;7400239;19;19918;-73
2023/06/02 04:52:08;;;;;;;25.40;16.02;;;18.10;99.90;;;;;;7398170;19;20225;-74
2023/06/02 04:54:35;;;;;;;23.35;14.90;;;18.10;99.90;;;;;;7399939;19;19927;-74
2023/06/02 04:57:05;;;;;;;25.90;15.85;;;18.20;99.90;;;;;;7400498;19;19918;-73
2023/06/02 04:59:35;;;;;;;23.33;15.15;;;18.20;99.90;;;;;;7399939;19;19918;-73
2023/06/02 05:02:01;;;;;;;23.08;14.02;;;18.20;99.90;;;;;;7399946;19;20343;-73
2023/06/02 05:04:27;;;;;;;20.35;14.30;;;18.20;99.90;;;;;;7399319;19;19986;-74
2023/06/02 05:06:53;;;;;;;22.77;13.90;;;18.30;99.90;;;;;;7400449;19;19919;-73
2023/06/02 05:09:19;;;;;;;24.00;14.57;;;18.30;99.90;;;;;;7378258;19;19915;-72
2023/06/02 05:11:45;;;;;;;22.67;15.00;;;18.30;99.90;;;;;;7401023;19;19922;-72
2023/06/02 05:14:11;;;;;;;25.38;14.23;;;18.40;99.90;;;;;;7398642;19;20255;-72
2023/06/02 05:16:42;;;;;;;22.30;13.02;;;18.40;99.90;;;;;;7399674;19;19910;-72
2023/06/02 05:19:07;;;;;;;22.65;14.13;;;18.40;99.90;;;;;;7399908;19;19918;-72
2023/06/02 05:21:33;;;;;;;22.30;13.52;;;18.50;99.90;;;;;;7401273;19;20549;-73
2023/06/02 05:23:59;;;;;;;23.17;13.35;;;18.50;99.90;;;;;;7400741;19;20571;-73
2023/06/02 05:26:26;;;;;;;18.45;12.02;;;18.50;99.20;;;;;;7400254;19;20274;-73
2023/06/02 05:28:53;;;;;;;19.15;11.55;;;18.50;98.70;;;;;;7400925;19;20331;-72
2023/06/02 05:31:20;;;;;;;16.48;12.40;;;18.60;98.20;;;;;;7390447;19;20270;-72
2023/06/02 05:33:45;;;;;;;18.17;10.48;;;18.60;97.90;;;;;;7399161;19;19953;-71
2023/06/02 05:36:11;;;;;;;23.65;11.25;;;18.60;97.50;;;;;;7399731;19;19933;-72
2023/06/02 05:38:43;;;;;;;19.27;11.32;;;18.70;97.00;;;;;;7400302;19;19915;-72
2023/06/02 05:41:10;;;;;;;17.10;10.02;;;18.80;96.80;;;;;;7395909;19;19925;-72
2023/06/02 05:43:36;;;;;;;16.55;10.50;;;18.80;96.30;;;;;;7399212;19;20223;-72
2023/06/02 05:46:02;;;;;;;17.52;10.70;;;18.90;95.90;;;;;;7397360;19;19911;-72
2023/06/02 05:48:27;;;;;;;16.92;9.77;;;19.00;95.70;;;;;;7397439;19;19926;-73
2023/06/02 05:50:53;;;;;;;15.82;9.35;;;19.00;95.00;;;;;;7401392;19;20322;-72
2023/06/02 05:53:19;;;;;;;15.40;9.07;;;19.10;94.60;;;;;;7397966;19;19922;-72
2023/06/02 05:55:45;;;;;;;15.27;9.38;;;19.20;93.90;;;;;;7400932;19;19922;-75
2023/06/02 05:58:11;;;;;;;16.58;9.60;;;19.30;93.70;;;;;;7399632;19;20002;-72
2023/06/02 06:00:38;;;;;;;18.60;10.18;;;19.30;93.20;;;;;;7369139;19;19935;-73
2023/06/02 06:03:04;;;;;;;17.58;9.65;;;19.30;92.60;;;;;;7400978;19;19911;-73
2023/06/02 06:05:30;;;;;;;16.58;9.85;;;19.50;92.40;;;;;;7398375;19;19914;-72
2023/06/02 06:07:56;;;;;;;18.17;9.68;;;19.50;92.30;;;;;;7398601;19;19911;-72
2023/06/02 06:10:23;;;;;;;18.90;10.70;;;19.60;92.00;;;;;;7396108;19;21271;-72
2023/06/02 06:12:48;;;;;;;16.67;9.57;;;19.60;91.70;;;;;;7396562;19;19914;-72
2023/06/02 06:15:14;;;;;;;13.70;9.18;;;19.70;91.40;;;;;;7398431;19;19935;-72
2023/06/02 06:17:51;;;;;;;15.07;8.82;;;19.80;91.20;;;;;;7397106;19;20001;-72
2023/06/02 06:20:18;;;;;;;15.60;8.63;;;19.90;90.70;;;;;;7395079;19;20258;-72
2023/06/02 06:22:45;;;;;;;14.20;8.13;;;19.90;90.40;;;;;;7399515;19;20252;-72
2023/06/02 06:25:11;;;;;;;17.08;7.78;;;20.00;90.20;;;;;;7394634;19;19915;-73
2023/06/02 06:27:38;;;;;;;14.27;8.30;;;20.00;90.00;;;;;;7400201;19;19941;-71
2023/06/02 06:30:05;;;;;;;16.63;8.32;;;20.10;89.50;;;;;;7401524;19;19921;-72
2023/06/02 06:32:31;;;;;;;14.13;8.82;;;20.20;89.10;;;;;;7405442;19;19942;-72
2023/06/02 06:34:58;;;;;;;12.15;7.60;;;20.20;88.50;;;;;;7406431;19;20331;-73
2023/06/02 06:37:24;;;;;;;13.85;6.97;;;20.20;86.80;;;;;;7403420;19;19926;-72
2023/06/02 06:39:50;;;;;;;11.75;7.20;;;20.20;86.30;;;;;;7400641;19;19925;-73
2023/06/02 06:42:16;;;;;;;13.68;7.00;;;20.30;86.20;;;;;;7394304;19;20563;-74
2023/06/02 06:44:41;;;;;;;12.00;6.35;;;20.40;86.10;;;;;;7401996;19;19926;-73
2023/06/02 06:47:07;;;;;;;11.23;6.35;;;20.50;85.20;;;;;;7378155;19;19926;-73
2023/06/02 06:49:33;;;;;;;9.95;6.28;;;20.60;84.50;;;;;;7385209;19;19914;-72
2023/06/02 06:51:59;;;;;;;9.38;6.50;;;20.70;84.00;;;;;;7372016;19;19911;-74
2023/06/02 06:54:25;;;;;;;11.80;7.20;;;20.70;83.60;;;;;;7385953;19;19926;-73
2023/06/02 06:56:51;;;;;;;11.60;6.40;;;20.80;83.20;;;;;;7398143;19;19935;-73
2023/06/02 06:59:17;;;;;;;13.23;6.97;;;20.90;83.00;;;;;;7363975;19;19919;-74
2023/06/02 07:01:45;;;;;;;12.55;7.80;;;20.90;82.80;;;;;;7391809;19;20269;-73
2023/06/02 07:04:11;;;;;;;17.70;8.75;;;20.80;82.80;;;;;;7392097;19;19915;-72
2023/06/02 07:06:37;;;;;;;17.98;8.77;;;20.90;83.60;;;;;;7401759;19;20022;-72
2023/06/02 07:09:03;;;;;;;11.80;7.72;;;20.90;83.90;;;;;;7399109;19;19918;-73
2023/06/02 07:11:29;;;;;;;13.15;7.28;;;21.00;83.90;;;;;;7396761;19;19927;-73
2023/06/02 07:13:55;;;;;;;12.40;6.70;;;21.00;82.30;;;;;;7401980;19;19915;-72
2023/06/02 07:16:21;;;;;;;12.95;6.95;;;21.00;81.20;;;;;;7396316;19;19939;-72
2023/06/02 07:18:48;;;;;;;14.75;6.72;;;21.10;81.00;;;;;;7394681;19;20331;-72
2023/06/02 07:21:14;;;;;;;11.55;6.47;;;21.20;80.20;;;;;;7399979;19;19952;-72
2023/06/02 07:23:39;;;;;;;11.38;6.57;;;21.30;79.60;;;;;;7370250;19;19923;-72
2023/06/02 07:26:05;;;;;;;14.30;6.55;;;21.40;78.90;;;;;;7392960;19;19914;-72
2023/06/02 07:28:31;;;;;;;12.70;7.43;;;21.40;78.20;;;;;;7396413;19;19939;-72
2023/06/02 07:30:57;;;;;;;11.13;6.75;;;21.40;78.70;;;;;;7397233;19;19922;-72
2023/06/02 07:33:23;;;;;;;11.38;6.50;;;21.50;78.90;;;;;;7397180;19;19939;-72
2023/06/02 07:35:49;;;;;;;11.07;6.78;;;21.50;78.10;;;;;;7398503;19;19919;-72
2023/06/02 07:38:14;;;;;;;12.63;6.55;;;21.60;78.00;;;;;;7402542;19;19922;-73
2023/06/02 07:40:40;;;;;;;12.45;8.25;;;21.60;78.10;;;;;;7369410;19;20338;-72
2023/06/02 07:43:07;;;;;;;17.35;7.72;;;21.70;77.90;;;;;;7398688;19;19932;-72
2023/06/02 07:45:33;;;;;;;13.35;7.47;;;21.70;77.80;;;;;;7396334;19;19918;-72
2023/06/02 07:48:00;;;;;;;13.27;7.63;;;21.70;77.80;;;;;;7395262;19;19923;-73
2023/06/02 07:50:27;;;;;;;13.32;7.28;;;21.80;77.80;;;;;;7400450;19;19906;-73
2023/06/02 07:52:54;;;;;;;15.77;8.45;;;21.90;77.70;;;;;;7377706;19;19918;-73
2023/06/02 07:55:20;;;;;;;14.63;7.88;;;22.00;77.70;;;;;;7396061;19;19918;-73
2023/06/02 07:57:46;;;;;;;14.32;7.53;;;22.00;77.20;;;;;;7403565;19;19979;-72
2023/06/02 08:00:17;;;;;;;12.35;7.70;;;22.20;77.10;;;;;;7390779;19;20261;-73
2023/06/02 08:02:46;;;;;;;12.73;7.40;;;22.20;76.60;;;;;;7397845;19;19914;-73
2023/06/02 08:05:12;;;;;;;10.80;7.00;;;22.40;76.10;;;;;;7391328;19;19923;-74
2023/06/02 08:07:38;;;;;;;13.45;6.93;;;22.50;75.40;;;;;;7401334;19;19918;-72
2023/06/02 08:10:05;;;;;;;11.73;7.10;;;22.40;75.00;;;;;;7375499;19;19955;-73
2023/06/02 08:12:31;;;;;;;;;;;22.40;75.10;;;;;;7405459;19;19939;-73
2023/06/02 08:14:56;;;;;;;14.05;7.22;;;22.30;75.00;;;;;;7403661;19;19919;-72
2023/06/02 08:17:28;;;;;;;13.18;7.90;;;22.40;75.40;;;;;;7401131;19;20255;-72
2023/06/02 08:19:55;;;;;;;13.43;8.00;;;22.60;74.60;;;;;;7402691;19;19915;-73
2023/06/02 08:22:25;;;;;;;14.25;8.00;;;22.70;74.30;;;;;;7399665;19;19918;-73
2023/06/02 08:24:56;;;;;;;13.02;7.80;;;22.90;73.20;;;;;;7398666;19;20351;-73
2023/06/02 08:27:23;;;;;;;13.68;8.40;;;23.00;73.00;;;;;;7396063;19;19934;-73
2023/06/02 08:29:49;;;;;;;12.55;8.48;;;23.00;72.10;;;;;;7398380;19;19930;-73
2023/06/02 08:32:19;;;;;;;15.65;8.93;;;23.00;72.00;;;;;;7370680;19;19914;-73
2023/06/02 08:34:47;;;;;;;14.18;9.18;;;23.20;71.80;;;;;;7399983;19;19918;-74
2023/06/02 08:37:16;;;;;;;16.65;8.75;;;23.20;71.10;;;;;;7402537;19;19930;-73
2023/06/02 08:39:46;;;;;;;13.50;9.20;;;23.20;71.30;;;;;;7401637;19;19929;-73
2023/06/02 08:42:13;;;;;;;15.65;9.15;;;23.20;71.10;;;;;;7399181;19;19982;-73
2023/06/02 08:44:40;;;;;;;;;;;23.10;71.40;;;;;;7402226;19;19918;-73
2023/06/02 08:47:10;;;;;;;21.05;11.45;;;23.00;71.80;;;;;;7401334;19;19918;-73
2023/06/02 08:49:36;;;;;;;19.58;10.45;;;23.00;72.50;;;;;;7381540;19;19922;-73
2023/06/02 08:52:34;;;;;;;17.40;10.30;;;23.30;72.10;;;;;;7396552;19;19935;-72
2023/06/02 08:55:03;;;;;;;17.40;9.85;;;23.30;71.90;;;;;;7401706;19;20343;-73
2023/06/02 08:57:29;;;;;;;16.15;10.63;;;23.40;71.90;;;;;;7401008;19;19918;-73
2023/06/02 08:59:57;;;;;;;17.60;10.82;;;23.70;71.20;;;;;;7398842;19;19929;-73
2023/06/02 09:02:23;;;;;;;22.50;10.93;;;23.70;71.00;;;;;;7398699;19;19945;-73
2023/06/02 09:04:48;;;;;;;20.88;11.32;;;24.00;70.80;;;;;;7399779;19;19985;-73
2023/06/02 09:07:15;;;;;;;19.05;11.25;;;24.20;70.20;;;;;;7398885;19;20324;-73
2023/06/02 09:09:46;;;;;;;18.95;11.48;;;24.30;69.80;;;;;;7369317;19;19921;-73
2023/06/02 09:12:14;;;;;;;25.48;12.95;;;24.30;69.20;;;;;;7398818;19;19923;-73
2023/06/02 09:14:40;;;;;;;19.05;12.57;;;24.20;69.70;;;;;;7401548;19;19926;-73
2023/06/02 09:17:38;;;;;;;17.70;12.23;;;24.40;70.00;;;;;;7399884;19;19994;-73
2023/06/02 09:20:10;;;;;;;22.77;13.23;;;24.60;69.20;;;;;;7397281;19;19954;-73
2023/06/02 09:22:55;;;;;;;22.65;15.68;;;24.60;69.20;;;;;;7399049;19;19946;-73
2023/06/02 09:25:29;;;;;;;22.08;15.07;;;24.30;70.10;;;;;;7395124;19;19918;-73
2023/06/02 09:27:59;;;;;;;22.92;14.95;;;24.50;69.60;;;;;;7397284;19;19936;-73
2023/06/02 09:30:26;;;;;;;26.80;15.38;;;24.60;69.50;;;;;;7400908;19;19918;-73
2023/06/02 09:32:57;;;;;;;24.58;17.35;;;24.70;69.30;;;;;;7399957;19;19925;-73
2023/06/02 09:35:34;;;;;;;25.20;17.08;;;24.70;69.30;;;;;;7400565;19;19918;-73
2023/06/02 09:38:01;;;;;;;26.27;16.95;;;24.40;70.20;;;;;;7400285;19;19957;-73
2023/06/02 09:40:27;;;;;;;24.02;15.63;;;24.30;70.70;;;;;;7398164;19;20076;-73
2023/06/02 09:42:53;;;;;;;23.08;14.80;;;24.60;70.40;;;;;;7395026;19;19982;-73
2023/06/02 09:45:19;;;;;;;24.75;15.60;;;24.80;69.80;;;;;;7398867;19;19919;-74
2023/06/02 09:47:48;;;;;;;28.42;18.25;;;24.80;69.90;;;;;;7401165;19;20343;-75
2023/06/02 09:50:38;;;;;;;27.67;18.25;;;24.70;69.90;;;;;;7400323;19;19918;-73
2023/06/02 09:53:06;;;;;;;26.73;17.65;;;24.40;71.70;;;;;;7396545;19;19925;-73
2023/06/02 09:55:34;;;;;;;29.23;18.23;;;24.70;71.50;;;;;;7399473;19;19935;-73
2023/06/02 09:58:00;;;;;;;27.40;17.92;;;24.50;71.10;;;;;;7401778;19;20005;-74
2023/06/02 10:00:26;;;;;;;;;;;24.90;71.20;;;;;;7405049;19;20006;-75
2023/06/02 10:02:53;;;;;;;27.13;18.02;;;25.00;70.50;;;;;;7402727;19;20274;-75
2023/06/02 10:05:22;;;;;;;26.65;17.08;;;24.80;70.70;;;;;;7404455;19;20212;-76
2023/06/02 10:08:08;;;;;;;27.60;18.13;;;24.90;70.70;;;;;;7410134;19;20221;-75
2023/06/02 10:11:01;;;;;;;30.20;16.65;;;25.10;70.30;;;;;;7408935;19;19926;-76
2023/06/02 10:13:44;;;;;;;25.75;19.25;;;25.00;71.00;;;;;;7406427;19;19911;-75
2023/06/02 10:16:16;;;;;;;26.15;16.27;;;24.90;72.00;;;;;;7403050;19;19918;-74
2023/06/02 10:19:02;;;;;;;22.40;16.42;;;24.80;72.40;;;;;;7409245;19;19925;-76
2023/06/02 10:21:49;;;;;;;26.98;17.30;;;25.00;72.40;;;;;;7408619;19;19907;-75
2023/06/02 10:24:45;;;;;;;27.10;16.05;;;25.00;72.40;;;;;;7408226;19;19942;-75
2023/06/02 10:27:31;;;;;;;26.13;17.23;;;25.00;73.20;;;;;;7407819;19;19931;-75
2023/06/02 10:29:57;;;;;;;24.77;16.38;;;24.80;73.70;;;;;;7408147;19;19930;-75
2023/06/02 10:32:27;;;;;;;25.25;15.93;;;24.60;74.00;;;;;;7373390;19;20700;-75
2023/06/02 10:34:56;;;;;;;22.38;15.45;;;24.80;74.10;;;;;;7403956;19;19923;-75
2023/06/02 10:37:23;;;;;;;22.55;13.60;;;25.00;72.60;;;;;;7405277;19;19945;-74
2023/06/02 10:39:57;;;;;;;18.98;13.00;;;25.00;72.50;;;;;;7376592;19;19922;-75
2023/06/02 10:42:30;;;;;;;17.83;12.15;;;25.20;72.40;;;;;;7403130;19;20504;-76
2023/06/02 10:45:35;;;;;;;20.27;12.65;;;25.50;70.90;;;;;;7405081;19;19925;-74
2023/06/02 10:48:00;;;;;;;20.70;12.60;;;25.40;71.40;;;;;;7404453;19;19911;-74
2023/06/02 10:50:51;;;;;;;18.92;13.23;;;25.50;71.20;;;;;;7405126;19;20336;-75
2023/06/02 10:53:17;;;;;;;16.40;12.05;;;25.00;72.10;;;;;;7404036;19;19934;-75
2023/06/02 10:55:44;;;;;;;18.38;12.40;;;24.10;74.80;;;;;;7408368;19;19954;-74
2023/06/02 10:58:12;;;;;;;16.15;11.18;;;23.80;76.10;;;;;;7404569;19;19911;-75
2023/06/02 11:00:43;;;;;;;16.00;11.05;;;24.60;74.20;;;;;;7407569;19;20296;-74
2023/06/02 11:03:18;;;;;;;18.55;12.02;;;25.00;72.20;;;;;;7404981;19;19911;-76
2023/06/02 11:05:49;;;;;;;18.40;10.23;;;25.00;71.60;;;;;;7405752;19;19958;-74
2023/06/02 11:08:17;;;;;;;13.88;10.30;;;25.20;71.40;;;;;;7404632;19;19922;-75
2023/06/02 11:10:51;;;;;;;14.20;9.65;;;25.70;70.50;;;;;;7406542;19;19966;-75
2023/06/02 11:13:18;;;;;;;13.85;9.80;;;26.00;68.80;;;;;;7402517;19;19919;-77
2023/06/02 11:15:59;;;;;;;13.93;9.98;;;26.40;67.80;;;;;;7406971;19;20466;-75
2023/06/02 11:18:27;;;;;;;19.65;11.48;;;26.70;67.60;;;;;;7403528;19;19914;-75
2023/06/02 11:20:58;;;;;;;16.40;11.32;;;27.00;66.80;;;;;;7406425;19;20006;-75
2023/06/02 11:23:25;;;;;;;17.05;8.35;;;27.10;64.70;;;;;;7406548;19;19936;-75
2023/06/02 11:26:26;;;;;;;13.55;9.88;;;27.00;65.10;;;;;;7408708;19;19915;-75
2023/06/02 11:28:52;;;;;;;14.38;9.63;;;27.40;65.10;;;;;;7403539;19;19986;-76
2023/06/02 11:31:19;;;;;;;12.93;9.35;;;27.40;64.30;;;;;;7405118;19;19918;-76
2023/06/02 11:33:48;;;;;;;18.63;8.63;;;27.20;64.00;;;;;;7405509;19;19922;-75
2023/06/02 11:36:15;;;;;;;16.95;10.85;;;27.70;63.00;;;;;;7401632;19;20860;-75
2023/06/02 11:38:41;;;;;;;15.38;11.75;;;27.60;62.90;;;;;;7404348;19;19918;-75
2023/06/02 11:41:19;;;;;;;17.42;13.98;;;27.50;64.60;;;;;;7403981;19;20374;-76
2023/06/02 11:43:47;;;;;;;17.02;12.52;;;27.00;65.20;;;;;;7407396;19;19927;-78
2023/06/02 11:46:17;;;;;;;19.17;13.25;;;26.90;65.70;;;;;;7404653;19;20665;-76
2023/06/02 11:48:44;;;;;;;15.52;11.73;;;26.50;67.20;;;;;;7402245;19;19978;-76
2023/06/02 11:51:15;;;;;;;14.10;10.93;;;26.60;65.90;;;;;;7392752;19;19994;-78
2023/06/02 11:53:45;;;;;;;16.90;12.85;;;25.50;67.90;;;;;;7399758;19;19929;-75
2023/06/02 11:56:15;;;;;;;16.55;9.57;;;26.10;67.90;;;;;;7398132;19;19919;-75
2023/06/02 11:58:48;;;;;;;16.25;12.73;;;26.30;67.40;;;;;;7391655;19;19949;-71
2023/06/02 12:01:15;;;;;;;17.25;13.23;;;26.30;67.20;;;;;;7389901;19;19919;-70
2023/06/02 12:04:00;;;;;;;12.68;10.23;;;26.80;66.10;;;;;;7400615;19;19943;-71
2023/06/02 12:06:26;;;;;;;17.10;12.10;;;27.30;65.00;;;;;;7384635;19;19926;-71
2023/06/02 12:08:52;;;;;;;;;;;26.60;63.70;;;;;;7377624;19;19911;-71
2023/06/02 12:11:21;;;;;;;14.77;10.15;;;27.20;64.10;;;;;;7390940;19;20632;-70
2023/06/02 12:13:57;;;;;;;18.90;12.10;;;27.20;63.90;;;;;;7384237;19;19910;-70
2023/06/02 12:16:24;;;;;;;15.65;12.05;;;27.00;63.50;;;;;;7386779;19;19938;-71
2023/06/02 12:18:53;;;;;;;13.18;10.18;;;27.70;62.60;;;;;;7394865;19;19923;-71
2023/06/02 12:21:28;;;;;;;14.13;11.30;;;26.90;60.50;;;;;;7398003;19;19919;-71
2023/06/02 12:23:55;;;;;;;14.70;11.95;;;26.40;63.50;;;;;;7390702;19;19923;-71
2023/06/02 12:26:21;;;;;;;15.10;8.57;;;26.50;63.50;;;;;;7391419;19;20333;-70
2023/06/02 12:28:48;;;;;;;;;;;26.30;62.20;;;;;;7404743;19;20554;-70
2023/06/02 12:31:18;;;;;;;16.42;9.98;;;25.70;64.20;;;;;;7400933;19;19921;-70
2023/06/02 12:33:45;;;;;;;14.68;9.77;;;25.10;66.60;;;;;;7400537;19;19915;-70
2023/06/02 12:36:14;;;;;;;15.35;9.65;;;24.60;67.90;;;;;;7396898;19;19923;-71